createdAt,value
2017-12-11T00:02:10.543Z,7.43
2017-12-11T00:04:38.054Z,7.27
2017-12-11T00:07:05.559Z,7.20
2017-12-11T00:09:33.071Z,7.26
2017-12-11T00:12:00.610Z,6.91
2017-12-11T00:14:28.128Z,7.24
2017-12-11T00:16:55.641Z,7.27
2017-12-11T00:19:23.273Z,7.19
2017-12-11T00:21:50.786Z,7.10
2017-12-11T00:24:18.302Z,7.23
2017-12-11T00:26:46.046Z,7.05
2017-12-11T00:29:13.546Z,7.22
2017-12-11T00:31:41.063Z,6.95
2017-12-11T00:34:08.756Z,7.08
2017-12-11T00:36:36.263Z,7.09
2017-12-11T00:39:03.770Z,6.98
2017-12-11T00:41:31.683Z,6.93
2017-12-11T00:43:59.194Z,6.91
2017-12-11T00:46:26.703Z,7.13
2017-12-11T00:48:54.490Z,6.94
2017-12-11T00:51:21.997Z,6.89
2017-12-11T00:53:49.509Z,7.00
2017-12-11T00:56:17.268Z,6.80
2017-12-11T00:58:44.828Z,6.75
2017-12-11T01:01:12.334Z,6.81
2017-12-11T01:03:40.765Z,7.02
2017-12-11T01:06:08.270Z,6.99
2017-12-11T01:08:35.781Z,7.00
2017-12-11T01:11:03.442Z,7.37
2017-12-11T01:13:30.945Z,7.06
2017-12-11T01:15:58.458Z,7.38
2017-12-11T01:18:26.001Z,7.22
2017-12-11T01:20:53.508Z,7.14
2017-12-11T01:23:21.912Z,7.25
2017-12-11T01:25:49.693Z,7.16
2017-12-11T01:28:17.202Z,7.26
2017-12-11T01:30:44.705Z,7.22
2017-12-11T01:33:12.585Z,7.55
2017-12-11T01:35:40.095Z,7.37
2017-12-11T01:38:07.608Z,7.74
2017-12-11T01:40:35.146Z,7.52
2017-12-11T01:43:02.654Z,7.63
2017-12-11T01:45:30.160Z,7.79
2017-12-11T01:47:57.730Z,7.74
2017-12-11T01:50:25.238Z,7.78
2017-12-11T01:52:53.278Z,7.90
2017-12-11T01:55:20.838Z,7.99
2017-12-11T01:57:48.338Z,8.17
2017-12-11T02:00:15.853Z,8.07
2017-12-11T02:02:43.617Z,7.79
2017-12-11T02:05:11.117Z,7.89
2017-12-11T02:07:38.625Z,7.67
2017-12-11T02:10:06.205Z,7.84
2017-12-11T02:12:33.712Z,8.11
2017-12-11T02:15:01.218Z,7.95
2017-12-11T02:17:28.766Z,8.17
2017-12-11T02:19:56.272Z,8.05
2017-12-11T02:22:23.782Z,7.68
2017-12-11T02:24:51.482Z,7.54
2017-12-11T02:27:19.003Z,7.61
2017-12-11T02:29:46.510Z,8.02
2017-12-11T02:32:14.054Z,7.88
2017-12-11T02:34:41.578Z,7.85
2017-12-11T02:37:09.137Z,8.10
2017-12-11T02:39:37.010Z,7.98
2017-12-11T02:42:04.515Z,7.87
2017-12-11T02:44:32.025Z,7.93
2017-12-11T02:46:59.587Z,7.94
2017-12-11T02:49:27.140Z,7.98
2017-12-11T02:51:54.702Z,8.12
2017-12-11T02:54:22.266Z,8.22
2017-12-11T02:56:49.778Z,8.17
2017-12-11T02:59:17.282Z,8.49
2017-12-11T03:01:45.240Z,8.37
2017-12-11T03:04:12.902Z,8.43
2017-12-11T03:06:40.461Z,8.57
2017-12-11T03:09:08.202Z,8.63
2017-12-11T03:11:35.702Z,8.60
2017-12-11T03:14:03.241Z,8.52
2017-12-11T03:16:30.795Z,8.54
2017-12-11T03:18:58.302Z,8.48
2017-12-11T03:21:26.328Z,8.50
2017-12-11T03:23:54.064Z,8.40
2017-12-11T03:26:21.566Z,8.40
2017-12-11T03:28:49.111Z,8.33
2017-12-11T03:31:16.873Z,8.42
2017-12-11T03:33:44.424Z,8.46
2017-12-11T03:36:11.990Z,8.61
2017-12-11T03:38:39.730Z,8.71
2017-12-11T03:41:07.246Z,8.56
2017-12-11T03:43:34.769Z,8.56
2017-12-11T03:46:02.635Z,8.84
2017-12-11T03:48:30.196Z,8.94
2017-12-11T03:50:57.700Z,8.85
2017-12-11T03:53:25.494Z,8.91
2017-12-11T03:55:53.001Z,8.79
2017-12-11T03:58:20.502Z,8.90
2017-12-11T04:00:48.478Z,9.06
2017-12-11T04:03:15.977Z,9.01
2017-12-11T04:05:43.517Z,9.04
2017-12-11T04:08:11.294Z,9.20
2017-12-11T04:10:38.947Z,9.22
2017-12-11T04:13:06.457Z,9.23
2017-12-11T04:15:34.078Z,9.22
2017-12-11T04:18:01.594Z,9.03
2017-12-11T04:20:29.094Z,9.22
2017-12-11T04:22:56.641Z,9.33
2017-12-11T04:25:24.213Z,9.45
2017-12-11T04:27:51.721Z,9.49
2017-12-11T04:30:19.622Z,9.50
2017-12-11T04:32:47.123Z,9.52
2017-12-11T04:35:14.639Z,9.53
2017-12-11T04:37:42.628Z,9.55
2017-12-11T04:40:10.164Z,9.50
2017-12-11T04:42:37.735Z,9.50
2017-12-11T04:45:05.589Z,9.48
2017-12-11T04:47:33.093Z,9.46
2017-12-11T04:50:00.616Z,9.43
2017-12-11T04:52:28.246Z,9.44
2017-12-11T04:54:55.775Z,9.42
2017-12-11T04:57:23.284Z,9.39
2017-12-11T04:59:50.845Z,9.39
2017-12-11T05:02:18.362Z,9.30
2017-12-11T05:04:45.874Z,9.33
2017-12-11T05:07:13.423Z,9.14
2017-12-11T05:09:40.979Z,9.16
2017-12-11T05:12:08.485Z,9.11
2017-12-11T05:14:36.196Z,9.24
2017-12-11T05:17:03.703Z,9.11
2017-12-11T05:19:31.234Z,9.09
2017-12-11T05:21:58.770Z,9.21
2017-12-11T05:24:26.283Z,9.23
2017-12-11T05:26:53.790Z,9.25
2017-12-11T05:29:21.448Z,9.31
2017-12-11T05:31:49.003Z,9.29
2017-12-11T05:34:16.594Z,9.30
2017-12-11T05:36:47.333Z,9.32
2017-12-11T05:39:14.838Z,9.32
2017-12-11T05:41:42.338Z,9.35
2017-12-11T05:44:09.894Z,9.24
2017-12-11T05:46:37.434Z,9.27
2017-12-11T05:49:04.937Z,9.07
2017-12-11T05:51:32.657Z,8.83
2017-12-11T05:54:00.158Z,8.95
2017-12-11T05:56:27.673Z,9.05
2017-12-11T05:58:55.546Z,9.06
2017-12-11T06:01:23.097Z,9.20
2017-12-11T06:03:50.660Z,9.16
2017-12-11T06:06:18.398Z,9.39
2017-12-11T06:08:45.911Z,9.39
2017-12-11T06:11:13.437Z,9.42
2017-12-11T06:13:41.303Z,9.41
2017-12-11T06:16:08.806Z,9.46
2017-12-11T06:18:36.318Z,9.48
2017-12-11T06:21:04.081Z,9.37
2017-12-11T06:23:31.587Z,9.35
2017-12-11T06:25:59.097Z,9.31
2017-12-11T06:28:26.656Z,9.28
2017-12-11T06:30:54.162Z,9.33
2017-12-11T06:35:48.515Z,9.30
2017-12-11T06:38:16.017Z,9.25
2017-12-11T06:40:43.636Z,8.73
2017-12-11T06:43:11.397Z,8.95
2017-12-11T06:45:38.905Z,9.04
2017-12-11T06:48:06.430Z,8.89
2017-12-11T06:50:33.982Z,9.06
2017-12-11T06:53:01.534Z,8.93
2017-12-11T06:55:29.091Z,9.18
2017-12-11T06:57:56.638Z,9.29
2017-12-11T07:00:24.142Z,9.30
2017-12-11T07:02:51.665Z,9.21
2017-12-11T07:05:19.224Z,9.28
2017-12-11T07:07:46.726Z,9.29
2017-12-11T07:10:14.339Z,9.38
2017-12-11T07:12:42.105Z,9.21
2017-12-11T07:15:09.638Z,9.21
2017-12-11T07:17:37.146Z,9.01
2017-12-11T07:20:04.702Z,9.07
2017-12-11T07:22:32.240Z,8.98
2017-12-11T07:24:59.741Z,9.14
2017-12-11T07:27:27.461Z,9.24
2017-12-11T07:29:54.970Z,9.25
2017-12-11T07:32:22.482Z,9.34
2017-12-11T07:34:50.218Z,9.27
2017-12-11T07:37:17.726Z,9.36
2017-12-11T07:39:45.258Z,9.25
2017-12-11T07:42:12.938Z,9.44
2017-12-11T07:44:40.477Z,9.47
2017-12-11T07:47:09.039Z,9.35
2017-12-11T07:49:37.186Z,9.26
2017-12-11T07:52:04.761Z,8.94
2017-12-11T07:54:32.558Z,8.86
2017-12-11T07:57:00.671Z,8.80
2017-12-11T07:59:28.291Z,8.82
2017-12-11T08:01:56.883Z,8.73
2017-12-11T08:04:25.529Z,8.36
2017-12-11T08:06:53.190Z,8.42
2017-12-11T08:09:21.026Z,8.48
2017-12-11T08:11:48.733Z,8.60
2017-12-11T08:14:16.621Z,8.61
2017-12-11T08:16:45.078Z,8.62
2017-12-11T08:19:12.730Z,8.40
2017-12-11T08:21:41.039Z,8.49
2017-12-11T08:24:08.874Z,8.65
2017-12-11T08:26:36.805Z,8.66
2017-12-11T08:29:04.326Z,8.22
2017-12-11T08:31:32.599Z,8.44
2017-12-11T08:34:03.948Z,8.67
2017-12-11T08:36:31.563Z,8.59
2017-12-11T08:39:00.294Z,8.76
2017-12-11T08:41:28.183Z,8.76
2017-12-11T08:43:56.924Z,8.64
2017-12-11T08:46:26.730Z,8.58
2017-12-11T08:48:55.105Z,8.53
2017-12-11T08:51:24.274Z,8.55
2017-12-11T08:53:52.610Z,8.42
2017-12-11T08:56:20.170Z,8.58
2017-12-11T08:58:48.550Z,8.46
2017-12-11T09:01:16.242Z,8.50
2017-12-11T09:03:43.874Z,8.60
2017-12-11T09:06:11.438Z,8.49
2017-12-11T09:08:39.893Z,8.55
2017-12-11T09:11:07.470Z,8.74
2017-12-11T09:13:35.645Z,8.58
2017-12-11T09:16:03.153Z,8.68
2017-12-11T09:18:30.731Z,8.41
2017-12-11T09:20:58.243Z,8.59
2017-12-11T09:23:25.780Z,8.60
2017-12-11T09:25:53.346Z,8.62
2017-12-11T09:28:21.010Z,8.23
2017-12-11T09:30:48.560Z,8.69
2017-12-11T09:33:16.523Z,8.72
2017-12-11T09:35:44.031Z,8.48
2017-12-11T09:38:11.646Z,8.55
2017-12-11T09:40:39.434Z,8.71
2017-12-11T09:43:08.197Z,8.67
2017-12-11T09:45:36.269Z,8.73
2017-12-11T09:48:04.707Z,9.09
2017-12-11T09:50:32.291Z,9.24
2017-12-11T09:53:01.670Z,9.07
2017-12-11T09:55:29.578Z,9.05
2017-12-11T09:57:57.358Z,9.10
2017-12-11T10:00:25.002Z,9.32
2017-12-11T10:02:53.279Z,9.52
2017-12-11T10:05:20.842Z,9.84
2017-12-11T10:07:48.447Z,9.99
2017-12-11T10:10:16.775Z,9.89
2017-12-11T10:12:46.282Z,10.00
2017-12-11T10:15:13.903Z,9.84
2017-12-11T10:17:41.995Z,10.21
2017-12-11T10:20:10.392Z,9.83
2017-12-11T10:22:38.204Z,9.80
2017-12-11T10:25:07.256Z,9.94
2017-12-11T10:27:35.949Z,10.00
2017-12-11T10:30:04.860Z,9.85
2017-12-11T10:32:32.592Z,9.95
2017-12-11T10:35:02.129Z,9.82
2017-12-11T10:37:32.464Z,10.06
2017-12-11T10:40:00.945Z,10.42
2017-12-11T10:42:28.878Z,10.00
2017-12-11T10:44:57.553Z,9.91
2017-12-11T10:47:25.322Z,10.49
2017-12-11T10:49:52.877Z,10.34
2017-12-11T10:52:20.581Z,10.52
2017-12-11T10:54:48.098Z,10.53
2017-12-11T10:57:15.606Z,10.20
2017-12-11T10:59:43.402Z,10.32
2017-12-11T11:02:10.906Z,10.46
2017-12-11T11:04:38.438Z,10.14
2017-12-11T11:07:06.282Z,10.22
2017-12-11T11:09:33.786Z,10.20
2017-12-11T11:12:02.036Z,9.91
2017-12-11T11:14:29.799Z,10.01
2017-12-11T11:16:57.360Z,9.77
2017-12-11T11:19:24.874Z,10.01
2017-12-11T11:21:52.579Z,9.63
2017-12-11T11:24:20.139Z,9.38
2017-12-11T11:26:47.642Z,9.64
2017-12-11T11:29:15.563Z,10.00
2017-12-11T11:31:43.122Z,10.24
2017-12-11T11:34:10.630Z,10.06
2017-12-11T11:36:38.426Z,10.61
2017-12-11T11:39:05.935Z,10.61
2017-12-11T11:41:33.462Z,10.59
2017-12-11T11:44:01.230Z,10.77
2017-12-11T11:46:28.889Z,10.74
2017-12-11T11:48:57.617Z,10.82
2017-12-11T11:51:27.079Z,10.77
2017-12-11T11:53:54.636Z,10.48
2017-12-11T11:56:22.503Z,10.59
2017-12-11T11:58:50.548Z,10.48
2017-12-11T12:01:18.133Z,10.22
2017-12-11T12:03:46.878Z,10.42
2017-12-11T12:06:14.583Z,10.29
2017-12-11T12:08:42.245Z,10.33
2017-12-11T12:11:10.521Z,10.49
2017-12-11T12:13:38.610Z,10.56
2017-12-11T12:16:06.238Z,10.36
2017-12-11T12:18:33.920Z,10.26
2017-12-11T12:21:01.596Z,10.16
2017-12-11T12:23:29.562Z,10.19
2017-12-11T12:25:57.308Z,10.28
2017-12-11T12:28:24.971Z,10.50
2017-12-11T12:30:52.656Z,10.62
2017-12-11T12:33:20.193Z,10.27
2017-12-11T12:35:48.380Z,10.25
2017-12-11T12:38:16.231Z,10.45
2017-12-11T12:40:43.830Z,10.56
2017-12-11T12:43:12.514Z,10.58
2017-12-11T12:45:40.042Z,10.68
2017-12-11T12:48:07.593Z,10.81
2017-12-11T12:50:35.791Z,10.83
2017-12-11T12:53:03.566Z,10.69
2017-12-11T12:55:31.157Z,10.74
2017-12-11T12:57:59.775Z,10.35
2017-12-11T13:00:28.521Z,10.31
2017-12-11T13:02:56.840Z,10.26
2017-12-11T13:05:25.526Z,10.45
2017-12-11T13:07:53.086Z,10.16
2017-12-11T13:10:21.033Z,10.10
2017-12-11T13:12:49.723Z,9.85
2017-12-11T13:15:17.238Z,10.34
2017-12-11T13:17:45.960Z,10.36
2017-12-11T13:20:14.317Z,10.53
2017-12-11T13:22:43.007Z,10.58
2017-12-11T13:25:10.596Z,10.66
2017-12-11T13:27:43.491Z,10.47
2017-12-11T13:30:16.576Z,10.60
2017-12-11T13:32:44.550Z,10.64
2017-12-11T13:35:12.100Z,10.55
2017-12-11T13:37:41.283Z,10.27
2017-12-11T13:40:09.273Z,10.49
2017-12-11T13:42:37.671Z,10.72
2017-12-11T13:45:06.646Z,10.37
2017-12-11T13:47:35.331Z,10.49
2017-12-11T13:50:03.746Z,10.49
2017-12-11T13:52:36.101Z,10.38
2017-12-11T13:55:03.743Z,10.42
2017-12-11T13:57:32.860Z,10.55
2017-12-11T14:00:02.940Z,10.28
2017-12-11T14:02:30.762Z,10.40
2017-12-11T14:04:58.393Z,10.20
2017-12-11T14:07:26.070Z,10.18
2017-12-11T14:09:53.713Z,10.30
2017-12-11T14:12:21.486Z,10.46
2017-12-11T14:14:49.276Z,10.46
2017-12-11T14:17:16.844Z,10.05
2017-12-11T14:19:44.762Z,10.23
2017-12-11T14:22:13.040Z,10.37
2017-12-11T14:24:40.832Z,10.51
2017-12-11T14:27:08.977Z,10.72
2017-12-11T14:29:36.847Z,10.63
2017-12-11T14:32:04.685Z,10.45
2017-12-11T14:34:33.202Z,10.40
2017-12-11T14:37:00.849Z,10.51
2017-12-11T14:39:28.519Z,10.57
2017-12-11T14:41:56.042Z,10.73
2017-12-11T14:44:24.519Z,10.67
2017-12-11T14:46:52.212Z,10.61
2017-12-11T14:49:20.028Z,10.56
2017-12-11T14:51:47.868Z,10.41
2017-12-11T14:54:16.221Z,10.57
2017-12-11T14:56:43.984Z,10.40
2017-12-11T14:59:12.467Z,10.23
2017-12-11T15:01:41.145Z,10.70
2017-12-11T15:04:08.689Z,10.54
2017-12-11T15:06:36.536Z,10.42
2017-12-11T15:09:04.414Z,10.49
2017-12-11T15:11:33.034Z,10.17
2017-12-11T15:14:01.458Z,10.05
2017-12-11T15:16:29.068Z,10.20
2017-12-11T15:18:56.730Z,10.28
2017-12-11T15:21:25.240Z,10.21
2017-12-11T15:23:53.588Z,9.96
2017-12-11T15:26:21.205Z,10.17
2017-12-11T15:28:49.525Z,10.05
2017-12-11T15:31:17.939Z,10.25
2017-12-11T15:33:46.794Z,10.19
2017-12-11T15:36:14.660Z,10.08
2017-12-11T15:38:42.429Z,9.95
2017-12-11T15:41:10.822Z,9.87
2017-12-11T15:43:38.948Z,10.08
2017-12-11T15:46:06.537Z,10.18
2017-12-11T15:48:34.144Z,9.82
2017-12-11T15:51:02.882Z,9.95
2017-12-11T15:53:30.441Z,10.02
2017-12-11T15:55:57.950Z,9.91
2017-12-11T15:58:25.506Z,9.76
2017-12-11T16:00:53.016Z,9.88
2017-12-11T16:03:20.518Z,9.86
2017-12-11T16:05:48.074Z,9.71
2017-12-11T16:08:15.591Z,9.82
2017-12-11T16:10:43.218Z,9.64
2017-12-11T16:13:11.119Z,9.84
2017-12-11T16:15:38.626Z,9.79
2017-12-11T16:18:06.163Z,9.72
2017-12-11T16:20:35.468Z,9.51
2017-12-11T16:23:03.096Z,9.53
2017-12-11T16:25:30.711Z,9.62
2017-12-11T16:27:58.806Z,9.59
2017-12-11T16:30:26.311Z,9.31
2017-12-11T16:32:54.971Z,9.53
2017-12-11T16:35:22.761Z,9.27
2017-12-11T16:37:50.396Z,9.29
2017-12-11T16:40:18.101Z,9.46
2017-12-11T16:42:45.925Z,9.60
2017-12-11T16:45:13.544Z,9.57
2017-12-11T16:47:41.146Z,9.24
2017-12-11T16:50:09.027Z,9.63
2017-12-11T16:52:37.341Z,9.42
2017-12-11T16:55:05.984Z,8.92
2017-12-11T16:57:33.974Z,9.18
2017-12-11T17:00:03.987Z,9.15
2017-12-11T17:02:31.538Z,8.81
2017-12-11T17:04:59.692Z,9.18
2017-12-11T17:07:27.401Z,9.14
2017-12-11T17:09:54.921Z,9.14
2017-12-11T17:12:22.676Z,9.09
2017-12-11T17:14:50.251Z,8.77
2017-12-11T17:17:17.758Z,8.96
2017-12-11T17:19:45.524Z,9.14
2017-12-11T17:22:13.076Z,9.26
2017-12-11T17:24:40.622Z,9.06
2017-12-11T17:27:08.314Z,9.11
2017-12-11T17:29:36.130Z,9.17
2017-12-11T17:32:03.970Z,8.91
2017-12-11T17:34:31.938Z,9.24
2017-12-11T17:36:59.450Z,8.86
2017-12-11T17:39:27.174Z,8.94
2017-12-11T17:41:55.230Z,8.76
2017-12-11T17:44:23.052Z,8.58
2017-12-11T17:46:51.190Z,8.85
2017-12-11T17:49:19.386Z,8.62
2017-12-11T17:51:47.234Z,8.65
2017-12-11T17:54:15.331Z,8.61
2017-12-11T17:56:44.491Z,8.85
2017-12-11T17:59:12.444Z,8.68
2017-12-11T18:01:40.822Z,8.75
2017-12-11T18:04:08.899Z,8.79
2017-12-11T18:06:36.708Z,8.82
2017-12-11T18:09:05.650Z,8.58
2017-12-11T18:11:33.824Z,8.66
2017-12-11T18:14:01.602Z,8.70
2017-12-11T18:16:29.454Z,8.72
2017-12-11T18:18:57.151Z,8.67
2017-12-11T18:21:26.006Z,8.50
2017-12-11T18:23:54.639Z,8.70
2017-12-11T18:26:22.670Z,8.69
2017-12-11T18:28:50.834Z,8.44
2017-12-11T18:31:18.611Z,8.50
2017-12-11T18:33:46.799Z,8.38
2017-12-11T18:36:15.457Z,8.68
2017-12-11T18:38:44.255Z,8.94
2017-12-11T18:41:12.566Z,8.76
2017-12-11T18:43:41.560Z,8.81
2017-12-11T18:46:09.678Z,8.73
2017-12-11T18:48:39.194Z,8.64
2017-12-11T18:51:09.167Z,8.74
2017-12-11T18:53:37.190Z,8.66
2017-12-11T18:56:05.863Z,8.52
2017-12-11T18:58:33.834Z,8.64
2017-12-11T19:01:02.788Z,8.51
2017-12-11T19:03:31.523Z,8.65
2017-12-11T19:05:59.711Z,8.55
2017-12-11T19:08:27.653Z,8.43
2017-12-11T19:10:55.868Z,8.44
2017-12-11T19:13:23.693Z,8.42
2017-12-11T19:15:51.661Z,8.56
2017-12-11T19:18:19.527Z,8.45
2017-12-11T19:20:47.396Z,8.52
2017-12-11T19:23:15.352Z,8.41
2017-12-11T19:25:43.014Z,8.74
2017-12-11T19:28:10.692Z,8.50
2017-12-11T19:30:38.774Z,8.30
2017-12-11T19:33:06.521Z,8.57
2017-12-11T19:35:34.186Z,8.35
2017-12-11T19:38:02.018Z,8.59
2017-12-11T19:40:30.122Z,8.43
